sensor_id;sensor_type;location;lat;lon;timestamp;pressure;altitude;pressure_sealevel;temperature;humidity
58534;BME280;44109;52.398;7.024;2023-05-12T00:00:24;101389.84;;;13.68;100.00
58534;BME280;44109;52.398;7.024;2023-05-12T00:02:52;101377.78;;;13.61;100.00
58534;BME280;44109;52.398;7.024;2023-05-12T00:05:20;101405.41;;;14.00;100.00
58534;BME280;44109;52.398;7.024;2023-05-12T00:07:48;101400.34;;;13.79;100.00
58534;BME280;44109;52.398;7.024;2023-05-12T00:10:16;101394.78;;;13.79;100.00
58534;BME280;44109;52.398;7.024;2023-05-12T00:12:43;101401.44;;;13.70;100.00
58534;BME280;44109;52.398;7.024;2023-05-12T00:15:15;101400.28;;;13.75;100.00
58534;BME280;44109;52.398;7.024;2023-05-12T00:17:44;101398.81;;;13.85;100.00
58534;BME280;44109;52.398;7.024;2023-05-12T00:20:12;101397.06;;;14.03;100.00
58534;BME280;44109;52.398;7.024;2023-05-12T00:22:40;101405.59;;;14.14;100.00
58534;BME280;44109;52.398;7.024;2023-05-12T00:25:08;101396.63;;;13.98;100.00
58534;BME280;44109;52.398;7.024;2023-05-12T00:27:36;101399.84;;;14.00;100.00
58534;BME280;44109;52.398;7.024;2023-05-12T00:30:04;101391.25;;;14.15;100.00
58534;BME280;44109;52.398;7.024;2023-05-12T00:32:34;101390.84;;;14.13;100.00
58534;BME280;44109;52.398;7.024;2023-05-12T00:35:02;101388.00;;;14.10;100.00
58534;BME280;44109;52.398;7.024;2023-05-12T00:37:30;101387.41;;;13.63;100.00
58534;BME280;44109;52.398;7.024;2023-05-12T00:39:57;101393.84;;;13.71;100.00
58534;BME280;44109;52.398;7.024;2023-05-12T00:42:25;101395.31;;;13.61;100.00
58534;BME280;44109;52.398;7.024;2023-05-12T00:44:53;101389.19;;;13.79;100.00
58534;BME280;44109;52.398;7.024;2023-05-12T00:47:21;101390.28;;;14.01;100.00
58534;BME280;44109;52.398;7.024;2023-05-12T00:49:50;101382.84;;;14.12;100.00
58534;BME280;44109;52.398;7.024;2023-05-12T00:52:18;101388.28;;;14.01;100.00
58534;BME280;44109;52.398;7.024;2023-05-12T00:54:47;101385.38;;;14.24;100.00
58534;BME280;44109;52.398;7.024;2023-05-12T00:57:17;101383.50;;;14.32;100.00
58534;BME280;44109;52.398;7.024;2023-05-12T00:59:45;101371.69;;;14.12;100.00
58534;BME280;44109;52.398;7.024;2023-05-12T01:02:12;101391.13;;;14.05;100.00
58534;BME280;44109;52.398;7.024;2023-05-12T01:04:40;101380.72;;;14.02;100.00
58534;BME280;44109;52.398;7.024;2023-05-12T01:07:14;101384.09;;;13.84;100.00
58534;BME280;44109;52.398;7.024;2023-05-12T01:09:45;101384.88;;;14.15;100.00
58534;BME280;44109;52.398;7.024;2023-05-12T01:12:13;101380.59;;;14.25;100.00
58534;BME280;44109;52.398;7.024;2023-05-12T01:14:41;101381.75;;;14.20;100.00
58534;BME280;44109;52.398;7.024;2023-05-12T01:17:11;101382.25;;;13.95;100.00
58534;BME280;44109;52.398;7.024;2023-05-12T01:19:42;101396.38;;;14.10;100.00
58534;BME280;44109;52.398;7.024;2023-05-12T01:22:16;101388.97;;;14.25;100.00
58534;BME280;44109;52.398;7.024;2023-05-12T01:24:45;101391.31;;;14.19;100.00
58534;BME280;44109;52.398;7.024;2023-05-12T01:27:19;101389.28;;;14.16;100.00
58534;BME280;44109;52.398;7.024;2023-05-12T01:29:50;101391.41;;;14.26;100.00
58534;BME280;44109;52.398;7.024;2023-05-12T01:32:20;101384.69;;;14.34;100.00
58534;BME280;44109;52.398;7.024;2023-05-12T01:34:48;101386.78;;;14.41;100.00
58534;BME280;44109;52.398;7.024;2023-05-12T01:37:16;101393.00;;;14.27;100.00
58534;BME280;44109;52.398;7.024;2023-05-12T01:39:44;101398.94;;;14.26;100.00
58534;BME280;44109;52.398;7.024;2023-05-12T01:42:12;101392.41;;;14.44;100.00
58534;BME280;44109;52.398;7.024;2023-05-12T01:44:41;101393.97;;;14.42;100.00
58534;BME280;44109;52.398;7.024;2023-05-12T01:47:08;101386.16;;;14.55;100.00
58534;BME280;44109;52.398;7.024;2023-05-12T01:49:36;101393.34;;;14.56;100.00
58534;BME280;44109;52.398;7.024;2023-05-12T01:52:04;101391.44;;;14.67;100.00
58534;BME280;44109;52.398;7.024;2023-05-12T01:54:32;101391.75;;;14.55;100.00
58534;BME280;44109;52.398;7.024;2023-05-12T01:57:00;101394.53;;;14.55;100.00
58534;BME280;44109;52.398;7.024;2023-05-12T01:59:27;101394.19;;;14.60;100.00
58534;BME280;44109;52.398;7.024;2023-05-12T02:01:57;101399.34;;;14.58;100.00
58534;BME280;44109;52.398;7.024;2023-05-12T02:04:24;101394.09;;;14.49;100.00
58534;BME280;44109;52.398;7.024;2023-05-12T02:06:52;101399.28;;;14.51;100.00
58534;BME280;44109;52.398;7.024;2023-05-12T02:09:19;101400.97;;;14.59;100.00
58534;BME280;44109;52.398;7.024;2023-05-12T02:11:47;101402.63;;;14.67;100.00
58534;BME280;44109;52.398;7.024;2023-05-12T02:14:15;101391.78;;;14.58;100.00
58534;BME280;44109;52.398;7.024;2023-05-12T02:16:43;101394.72;;;14.39;100.00
58534;BME280;44109;52.398;7.024;2023-05-12T02:19:13;101398.88;;;14.52;100.00
58534;BME280;44109;52.398;7.024;2023-05-12T02:21:41;101397.38;;;14.58;100.00
58534;BME280;44109;52.398;7.024;2023-05-12T02:24:11;101399.03;;;14.66;100.00
58534;BME280;44109;52.398;7.024;2023-05-12T02:26:38;101406.13;;;14.57;100.00
58534;BME280;44109;52.398;7.024;2023-05-12T02:29:06;101405.28;;;14.53;100.00
58534;BME280;44109;52.398;7.024;2023-05-12T02:31:34;101405.19;;;14.45;100.00
58534;BME280;44109;52.398;7.024;2023-05-12T02:34:01;101388.44;;;14.45;100.00
58534;BME280;44109;52.398;7.024;2023-05-12T02:36:31;101404.59;;;14.29;100.00
58534;BME280;44109;52.398;7.024;2023-05-12T02:38:58;101396.38;;;14.10;100.00
58534;BME280;44109;52.398;7.024;2023-05-12T02:41:26;101399.13;;;14.06;100.00
58534;BME280;44109;52.398;7.024;2023-05-12T02:43:54;101397.00;;;14.26;100.00
58534;BME280;44109;52.398;7.024;2023-05-12T02:46:21;101395.41;;;14.29;100.00
58534;BME280;44109;52.398;7.024;2023-05-12T02:48:49;101390.56;;;14.26;100.00
58534;BME280;44109;52.398;7.024;2023-05-12T02:51:16;101393.81;;;14.28;100.00
58534;BME280;44109;52.398;7.024;2023-05-12T02:53:46;101379.81;;;14.24;100.00
58534;BME280;44109;52.398;7.024;2023-05-12T02:56:13;101395.34;;;14.25;100.00
58534;BME280;44109;52.398;7.024;2023-05-12T02:58:41;101391.66;;;14.14;100.00
58534;BME280;44109;52.398;7.024;2023-05-12T03:01:08;101394.44;;;14.14;100.00
58534;BME280;44109;52.398;7.024;2023-05-12T03:03:36;101393.63;;;14.13;100.00
58534;BME280;44109;52.398;7.024;2023-05-12T03:06:04;101388.56;;;13.92;100.00
58534;BME280;44109;52.398;7.024;2023-05-12T03:08:32;101397.50;;;14.05;100.00
58534;BME280;44109;52.398;7.024;2023-05-12T03:11:02;101390.19;;;13.93;100.00
58534;BME280;44109;52.398;7.024;2023-05-12T03:13:30;101395.44;;;13.99;100.00
58534;BME280;44109;52.398;7.024;2023-05-12T03:15:58;101388.56;;;13.92;100.00
58534;BME280;44109;52.398;7.024;2023-05-12T03:18:26;101392.69;;;14.02;100.00
58534;BME280;44109;52.398;7.024;2023-05-12T03:20:54;101398.53;;;13.90;100.00
58534;BME280;44109;52.398;7.024;2023-05-12T03:23:21;101388.34;;;13.75;100.00
58534;BME280;44109;52.398;7.024;2023-05-12T03:25:49;101399.56;;;13.78;100.00
58534;BME280;44109;52.398;7.024;2023-05-12T03:28:18;101407.34;;;13.95;100.00
58534;BME280;44109;52.398;7.024;2023-05-12T03:30:47;101396.66;;;14.01;100.00
58534;BME280;44109;52.398;7.024;2023-05-12T03:33:15;101399.88;;;14.03;100.00
58534;BME280;44109;52.398;7.024;2023-05-12T03:35:43;101403.09;;;14.05;100.00
58534;BME280;44109;52.398;7.024;2023-05-12T03:38:10;101402.81;;;14.14;100.00
58534;BME280;44109;52.398;7.024;2023-05-12T03:40:38;101404.41;;;14.15;100.00
58534;BME280;44109;52.398;7.024;2023-05-12T03:43:06;101416.03;;;14.20;100.00
58534;BME280;44109;52.398;7.024;2023-05-12T03:45:35;101412.69;;;14.08;100.00
58534;BME280;44109;52.398;7.024;2023-05-12T03:48:03;101404.50;;;14.22;100.00
58534;BME280;44109;52.398;7.024;2023-05-12T03:50:31;101415.16;;;14.13;100.00
58534;BME280;44109;52.398;7.024;2023-05-12T03:52:59;101416.94;;;14.28;100.00
58534;BME280;44109;52.398;7.024;2023-05-12T03:55:27;101419.38;;;14.33;100.00
58534;BME280;44109;52.398;7.024;2023-05-12T03:57:54;101417.84;;;14.39;100.00
58534;BME280;44109;52.398;7.024;2023-05-12T04:00:22;101425.75;;;14.34;100.00
58534;BME280;44109;52.398;7.024;2023-05-12T04:02:51;101422.72;;;14.46;100.00
58534;BME280;44109;52.398;7.024;2023-05-12T04:05:19;101423.25;;;14.55;100.00
58534;BME280;44109;52.398;7.024;2023-05-12T04:07:46;101439.09;;;14.47;100.00
58534;BME280;44109;52.398;7.024;2023-05-12T04:10:14;101440.34;;;14.50;100.00
58534;BME280;44109;52.398;7.024;2023-05-12T04:12:42;101423.31;;;14.59;100.00
58534;BME280;44109;52.398;7.024;2023-05-12T04:15:10;101436.63;;;14.42;100.00
58534;BME280;44109;52.398;7.024;2023-05-12T04:17:39;101432.84;;;14.58;100.00
58534;BME280;44109;52.398;7.024;2023-05-12T04:20:09;101431.78;;;14.69;100.00
58534;BME280;44109;52.398;7.024;2023-05-12T04:22:37;101433.38;;;14.70;100.00
58534;BME280;44109;52.398;7.024;2023-05-12T04:25:05;101433.88;;;14.80;100.00
58534;BME280;44109;52.398;7.024;2023-05-12T04:27:33;101445.41;;;14.75;100.00
58534;BME280;44109;52.398;7.024;2023-05-12T04:30:01;101456.16;;;14.73;100.00
58534;BME280;44109;52.398;7.024;2023-05-12T04:32:28;101455.88;;;14.85;100.00
58534;BME280;44109;52.398;7.024;2023-05-12T04:34:56;101454.31;;;14.87;100.00
58534;BME280;44109;52.398;7.024;2023-05-12T04:37:25;101458.66;;;14.81;100.00
58534;BME280;44109;52.398;7.024;2023-05-12T04:39:53;101464.38;;;14.95;100.00
58534;BME280;44109;52.398;7.024;2023-05-12T04:42:20;101460.81;;;14.98;100.00
58534;BME280;44109;52.398;7.024;2023-05-12T04:44:48;101461.66;;;15.03;100.00
58534;BME280;44109;52.398;7.024;2023-05-12T04:47:16;101462.53;;;15.10;100.00
58534;BME280;44109;52.398;7.024;2023-05-12T04:49:43;101477.72;;;15.13;100.00
58534;BME280;44109;52.398;7.024;2023-05-12T04:52:11;101465.72;;;15.12;100.00
58534;BME280;44109;52.398;7.024;2023-05-12T04:54:40;101476.22;;;15.22;100.00
58534;BME280;44109;52.398;7.024;2023-05-12T04:57:07;101481.06;;;15.29;100.00
58534;BME280;44109;52.398;7.024;2023-05-12T04:59:35;101482.63;;;15.23;100.00
58534;BME280;44109;52.398;7.024;2023-05-12T05:02:04;101484.22;;;15.24;100.00
58534;BME280;44109;52.398;7.024;2023-05-12T05:04:32;101486.16;;;15.20;100.00
58534;BME280;44109;52.398;7.024;2023-05-12T05:06:59;101489.41;;;15.22;100.00
58534;BME280;44109;52.398;7.024;2023-05-12T05:09:28;101497.06;;;15.32;100.00
58534;BME280;44109;52.398;7.024;2023-05-12T05:11:57;101503.16;;;15.41;100.00
58534;BME280;44109;52.398;7.024;2023-05-12T05:14:25;101499.13;;;15.39;100.00
58534;BME280;44109;52.398;7.024;2023-05-12T05:16:53;101509.88;;;15.37;100.00
58534;BME280;44109;52.398;7.024;2023-05-12T05:19:20;101506.34;;;15.40;100.00
58534;BME280;44109;52.398;7.024;2023-05-12T05:21:48;101511.81;;;15.29;100.00
58534;BME280;44109;52.398;7.024;2023-05-12T05:24:15;101510.66;;;15.34;100.00
58534;BME280;44109;52.398;7.024;2023-05-12T05:26:43;101526.72;;;15.44;100.00
58534;BME280;44109;52.398;7.024;2023-05-12T05:29:13;101526.00;;;15.51;100.00
58534;BME280;44109;52.398;7.024;2023-05-12T05:31:40;101517.16;;;15.45;100.00
58534;BME280;44109;52.398;7.024;2023-05-12T05:34:08;101512.06;;;15.58;100.00
58534;BME280;44109;52.398;7.024;2023-05-12T05:36:36;101520.75;;;15.45;100.00
58534;BME280;44109;52.398;7.024;2023-05-12T05:39:04;101531.72;;;15.65;100.00
58534;BME280;44109;52.398;7.024;2023-05-12T05:41:32;101524.16;;;15.65;100.00
58534;BME280;44109;52.398;7.024;2023-05-12T05:44:00;101531.81;;;15.76;100.00
58534;BME280;44109;52.398;7.024;2023-05-12T05:46:29;101525.88;;;15.84;100.00
58534;BME280;44109;52.398;7.024;2023-05-12T05:48:56;101535.06;;;15.85;100.00
58534;BME280;44109;52.398;7.024;2023-05-12T05:51:24;101537.41;;;15.72;100.00
58534;BME280;44109;52.398;7.024;2023-05-12T05:53:52;101537.09;;;15.88;100.00
58534;BME280;44109;52.398;7.024;2023-05-12T05:56:20;101540.34;;;15.93;100.00
58534;BME280;44109;52.398;7.024;2023-05-12T05:58:48;101537.22;;;16.02;100.00
58534;BME280;44109;52.398;7.024;2023-05-12T06:01:15;101541.69;;;16.14;100.00
58534;BME280;44109;52.398;7.024;2023-05-12T06:03:44;101544.06;;;16.12;100.00
58534;BME280;44109;52.398;7.024;2023-05-12T06:06:12;101548.16;;;16.25;100.00
58534;BME280;44109;52.398;7.024;2023-05-12T06:08:40;101549.78;;;16.26;100.00
58534;BME280;44109;52.398;7.024;2023-05-12T06:11:07;101555.47;;;16.40;100.00
58534;BME280;44109;52.398;7.024;2023-05-12T06:13:35;101553.91;;;16.50;100.00
58534;BME280;44109;52.398;7.024;2023-05-12T06:16:03;101553.94;;;16.61;100.00
58534;BME280;44109;52.398;7.024;2023-05-12T06:18:30;101560.34;;;16.61;100.00
58534;BME280;44109;52.398;7.024;2023-05-12T06:21:04;101555.09;;;16.53;100.00
58534;BME280;44109;52.398;7.024;2023-05-12T06:23:32;101564.38;;;16.71;100.00
58534;BME280;44109;52.398;7.024;2023-05-12T06:26:00;101560.03;;;16.73;100.00
58534;BME280;44109;52.398;7.024;2023-05-12T06:28:28;101564.38;;;16.71;100.00
58534;BME280;44109;52.398;7.024;2023-05-12T06:30:55;101569.19;;;16.67;100.00
58534;BME280;44109;52.398;7.024;2023-05-12T06:33:24;101570.84;;;16.75;100.00
58534;BME280;44109;52.398;7.024;2023-05-12T06:35:52;101566.53;;;16.92;100.00
58534;BME280;44109;52.398;7.024;2023-05-12T06:38:21;101560.50;;;16.86;100.00
58534;BME280;44109;52.398;7.024;2023-05-12T06:40:49;101562.91;;;16.91;100.00
58534;BME280;44109;52.398;7.024;2023-05-12T06:43:16;101586.19;;;17.10;100.00
58534;BME280;44109;52.398;7.024;2023-05-12T06:45:44;101568.59;;;17.09;100.00
58534;BME280;44109;52.398;7.024;2023-05-12T06:48:12;101579.00;;;17.09;100.00
58534;BME280;44109;52.398;7.024;2023-05-12T06:50:39;101583.81;;;17.19;100.00
58534;BME280;44109;52.398;7.024;2023-05-12T06:53:07;101580.66;;;17.28;100.00
58534;BME280;44109;52.398;7.024;2023-05-12T06:55:36;101584.63;;;17.19;100.00
58534;BME280;44109;52.398;7.024;2023-05-12T06:58:04;101573.81;;;17.14;100.00
58534;BME280;44109;52.398;7.024;2023-05-12T07:00:32;101580.66;;;17.31;100.00
58534;BME280;44109;52.398;7.024;2023-05-12T07:02:59;101588.69;;;17.40;100.00
58534;BME280;44109;52.398;7.024;2023-05-12T07:05:27;101591.06;;;17.38;100.00
58534;BME280;44109;52.398;7.024;2023-05-12T07:07:55;101586.28;;;17.45;100.00
58534;BME280;44109;52.398;7.024;2023-05-12T07:10:22;101588.72;;;17.58;100.00
58534;BME280;44109;52.398;7.024;2023-05-12T07:12:51;101590.31;;;17.52;100.00
58534;BME280;44109;52.398;7.024;2023-05-12T07:15:19;101601.53;;;17.59;100.00
58534;BME280;44109;52.398;7.024;2023-05-12T07:17:47;101601.53;;;17.59;100.00
58534;BME280;44109;52.398;7.024;2023-05-12T07:20:14;101599.53;;;17.70;100.00
58534;BME280;44109;52.398;7.024;2023-05-12T07:22:43;101594.38;;;17.90;100.00
58534;BME280;44109;52.398;7.024;2023-05-12T07:25:10;101594.38;;;18.04;100.00
58534;BME280;44109;52.398;7.024;2023-05-12T07:27:38;101597.16;;;18.22;100.00
58534;BME280;44109;52.398;7.024;2023-05-12T07:30:08;101604.38;;;18.23;100.00
58534;BME280;44109;52.398;7.024;2023-05-12T07:32:36;101601.97;;;18.25;100.00
58534;BME280;44109;52.398;7.024;2023-05-12T07:35:04;101606.38;;;18.12;100.00
58534;BME280;44109;52.398;7.024;2023-05-12T07:37:32;101606.78;;;18.21;100.00
58534;BME280;44109;52.398;7.024;2023-05-12T07:40:00;101616.81;;;18.33;100.00
58534;BME280;44109;52.398;7.024;2023-05-12T07:42:27;101612.78;;;18.41;100.00
58534;BME280;44109;52.398;7.024;2023-05-12T07:44:55;101607.13;;;18.59;100.00
58534;BME280;44109;52.398;7.024;2023-05-12T07:47:24;101612.72;;;18.73;100.00
58534;BME280;44109;52.398;7.024;2023-05-12T07:49:53;101612.31;;;18.71;100.00
58534;BME280;44109;52.398;7.024;2023-05-12T07:52:21;101615.13;;;18.82;100.00
58534;BME280;44109;52.398;7.024;2023-05-12T07:54:49;101622.28;;;19.00;100.00
58534;BME280;44109;52.398;7.024;2023-05-12T07:57:16;101624.94;;;19.29;100.00
58534;BME280;44109;52.398;7.024;2023-05-12T07:59:44;101626.16;;;19.24;100.00
58534;BME280;44109;52.398;7.024;2023-05-12T08:02:12;101630.91;;;19.38;100.00
58534;BME280;44109;52.398;7.024;2023-05-12T08:04:41;101626.94;;;19.32;100.00
58534;BME280;44109;52.398;7.024;2023-05-12T08:07:09;101625.63;;;19.47;100.00
58534;BME280;44109;52.398;7.024;2023-05-12T08:09:36;101623.72;;;19.34;100.00
58534;BME280;44109;52.398;7.024;2023-05-12T08:12:04;101633.72;;;19.42;100.00
58534;BME280;44109;52.398;7.024;2023-05-12T08:14:32;101642.97;;;19.42;100.00
58534;BME280;44109;52.398;7.024;2023-05-12T08:17:00;101644.03;;;19.70;100.00
58534;BME280;44109;52.398;7.024;2023-05-12T08:19:27;101637.03;;;19.92;100.00
58534;BME280;44109;52.398;7.024;2023-05-12T08:21:56;101637.31;;;20.09;100.00
58534;BME280;44109;52.398;7.024;2023-05-12T08:24:24;101643.91;;;20.36;100.00
58534;BME280;44109;52.398;7.024;2023-05-12T08:26:52;101639.78;;;20.48;100.00
58534;BME280;44109;52.398;7.024;2023-05-12T08:29:19;101637.69;;;20.56;100.00
58534;BME280;44109;52.398;7.024;2023-05-12T08:31:47;101623.13;;;20.61;100.00
58534;BME280;44109;52.398;7.024;2023-05-12T08:34:15;101615.72;;;20.74;100.00
58534;BME280;44109;52.398;7.024;2023-05-12T08:36:43;101626.47;;;20.86;100.00
58534;BME280;44109;52.398;7.024;2023-05-12T08:39:12;101635.88;;;21.07;100.00
58534;BME280;44109;52.398;7.024;2023-05-12T08:41:42;101634.44;;;21.25;100.00
58534;BME280;44109;52.398;7.024;2023-05-12T08:44:11;101633.56;;;21.63;100.00
58534;BME280;44109;52.398;7.024;2023-05-12T08:46:40;101642.66;;;21.74;100.00
58534;BME280;44109;52.398;7.024;2023-05-12T08:49:09;101644.63;;;21.77;99.06
58534;BME280;44109;52.398;7.024;2023-05-12T08:51:42;101654.53;;;21.62;94.87
58534;BME280;44109;52.398;7.024;2023-05-12T08:54:12;101638.59;;;21.48;95.02
58534;BME280;44109;52.398;7.024;2023-05-12T08:56:41;101641.81;;;21.77;99.82
58534;BME280;44109;52.398;7.024;2023-05-12T08:59:12;101645.94;;;21.96;93.39
58534;BME280;44109;52.398;7.024;2023-05-12T09:01:41;101653.34;;;21.86;92.68
58534;BME280;44109;52.398;7.024;2023-05-12T09:04:12;101654.34;;;21.76;91.18
58534;BME280;44109;52.398;7.024;2023-05-12T09:06:40;101646.97;;;21.82;86.25
58534;BME280;44109;52.398;7.024;2023-05-12T09:09:08;101647.28;;;22.15;92.91
58534;BME280;44109;52.398;7.024;2023-05-12T09:11:38;101654.69;;;22.28;86.46
58534;BME280;44109;52.398;7.024;2023-05-12T09:14:08;101653.28;;;22.40;92.06
58534;BME280;44109;52.398;7.024;2023-05-12T09:16:42;101647.97;;;22.66;91.91
58534;BME280;44109;52.398;7.024;2023-05-12T09:19:18;101655.47;;;22.52;79.80
58534;BME280;44109;52.398;7.024;2023-05-12T09:21:46;101651.72;;;22.59;80.90
58534;BME280;44109;52.398;7.024;2023-05-12T09:24:14;101641.09;;;22.87;84.85
58534;BME280;44109;52.398;7.024;2023-05-12T09:26:47;101646.59;;;22.74;83.14
58534;BME280;44109;52.398;7.024;2023-05-12T09:29:16;101644.72;;;22.87;82.00
58534;BME280;44109;52.398;7.024;2023-05-12T09:31:54;101650.13;;;23.01;77.99
58534;BME280;44109;52.398;7.024;2023-05-12T09:34:26;101642.00;;;23.03;77.36
58534;BME280;44109;52.398;7.024;2023-05-12T09:36:55;101642.59;;;22.95;78.28
58534;BME280;44109;52.398;7.024;2023-05-12T09:39:23;101647.06;;;22.92;80.62
58534;BME280;44109;52.398;7.024;2023-05-12T09:41:53;101658.41;;;22.89;73.79
58534;BME280;44109;52.398;7.024;2023-05-12T09:44:22;101653.56;;;22.69;71.93
58534;BME280;44109;52.398;7.024;2023-05-12T09:46:51;101652.25;;;22.74;71.47
58534;BME280;44109;52.398;7.024;2023-05-12T09:49:19;101657.00;;;22.81;71.85
58534;BME280;44109;52.398;7.024;2023-05-12T09:51:50;101660.63;;;22.81;73.35
58534;BME280;44109;52.398;7.024;2023-05-12T09:54:25;101651.28;;;23.04;72.66
58534;BME280;44109;52.398;7.024;2023-05-12T09:56:57;101651.19;;;23.27;71.43
58534;BME280;44109;52.398;7.024;2023-05-12T09:59:30;101659.31;;;23.45;65.24
58534;BME280;44109;52.398;7.024;2023-05-12T10:02:00;101646.13;;;23.19;63.98
58534;BME280;44109;52.398;7.024;2023-05-12T10:04:35;101658.44;;;23.28;62.44
58534;BME280;44109;52.398;7.024;2023-05-12T10:07:07;101650.97;;;23.18;65.42
58534;BME280;44109;52.398;7.024;2023-05-12T10:09:39;101652.22;;;22.97;60.74
58534;BME280;44109;52.398;7.024;2023-05-12T10:12:11;101649.13;;;22.88;59.72
58534;BME280;44109;52.398;7.024;2023-05-12T10:14:39;101650.34;;;22.91;65.48
58534;BME280;44109;52.398;7.024;2023-05-12T10:17:09;101652.53;;;23.03;64.42
58534;BME280;44109;52.398;7.024;2023-05-12T10:19:38;101657.31;;;23.26;70.72
58534;BME280;44109;52.398;7.024;2023-05-12T10:22:09;101657.31;;;23.26;67.22
58534;BME280;44109;52.398;7.024;2023-05-12T10:24:38;101648.75;;;23.10;62.52
58534;BME280;44109;52.398;7.024;2023-05-12T10:27:07;101635.38;;;23.10;67.91
58534;BME280;44109;52.398;7.024;2023-05-12T10:29:38;101652.66;;;22.52;63.63
58534;BME280;44109;52.398;7.024;2023-05-12T10:32:07;101648.50;;;22.37;70.62
58534;BME280;44109;52.398;7.024;2023-05-12T10:34:36;101648.06;;;23.02;69.02
58534;BME280;44109;52.398;7.024;2023-05-12T10:37:04;101651.69;;;22.83;67.99
58534;BME280;44109;52.398;7.024;2023-05-12T10:39:34;101641.88;;;22.87;72.65
58534;BME280;44109;52.398;7.024;2023-05-12T10:42:05;101647.38;;;23.18;65.82
58534;BME280;44109;52.398;7.024;2023-05-12T10:44:46;101650.03;;;23.25;69.92
58534;BME280;44109;52.398;7.024;2023-05-12T10:47:15;101649.97;;;23.65;66.20
58534;BME280;44109;52.398;7.024;2023-05-12T10:49:43;101651.19;;;23.64;67.86
58534;BME280;44109;52.398;7.024;2023-05-12T10:52:11;101648.38;;;23.64;62.04
58534;BME280;44109;52.398;7.024;2023-05-12T10:54:40;101643.47;;;22.88;64.47
58534;BME280;44109;52.398;7.024;2023-05-12T10:57:13;101642.03;;;23.20;63.73
58534;BME280;44109;52.398;7.024;2023-05-12T10:59:49;101641.44;;;23.48;64.04
58534;BME280;44109;52.398;7.024;2023-05-12T11:02:19;101633.34;;;23.67;63.05
58534;BME280;44109;52.398;7.024;2023-05-12T11:04:53;101638.81;;;23.58;61.72
58534;BME280;44109;52.398;7.024;2023-05-12T11:07:23;101635.94;;;23.41;62.87
58534;BME280;44109;52.398;7.024;2023-05-12T11:09:53;101648.63;;;22.73;62.15
58534;BME280;44109;52.398;7.024;2023-05-12T11:12:23;101643.38;;;22.95;67.83
58534;BME280;44109;52.398;7.024;2023-05-12T11:14:53;101639.00;;;23.11;62.67
58534;BME280;44109;52.398;7.024;2023-05-12T11:17:21;101633.84;;;22.86;66.61
58534;BME280;44109;52.398;7.024;2023-05-12T11:19:49;101633.97;;;22.78;66.43
58534;BME280;44109;52.398;7.024;2023-05-12T11:22:19;101634.44;;;22.07;61.91
58534;BME280;44109;52.398;7.024;2023-05-12T11:24:48;101634.59;;;22.46;63.82
58534;BME280;44109;52.398;7.024;2023-05-12T11:27:18;101634.47;;;22.53;63.55
58534;BME280;44109;52.398;7.024;2023-05-12T11:29:56;101631.66;;;22.53;64.60
58534;BME280;44109;52.398;7.024;2023-05-12T11:32:24;101637.88;;;22.45;63.58
58534;BME280;44109;52.398;7.024;2023-05-12T11:34:52;101631.06;;;22.19;63.67
58534;BME280;44109;52.398;7.024;2023-05-12T11:37:20;101632.47;;;22.31;62.21
58534;BME280;44109;52.398;7.024;2023-05-12T11:39:48;101641.59;;;22.38;65.28
58534;BME280;44109;52.398;7.024;2023-05-12T11:42:18;101631.41;;;22.44;56.58
58534;BME280;44109;52.398;7.024;2023-05-12T11:44:46;101631.91;;;22.16;58.98
58534;BME280;44109;52.398;7.024;2023-05-12T11:47:18;101629.03;;;21.92;61.49
58534;BME280;44109;52.398;7.024;2023-05-12T11:49:47;101628.13;;;22.26;61.71
58534;BME280;44109;52.398;7.024;2023-05-12T11:52:16;101641.38;;;22.29;61.52
58534;BME280;44109;52.398;7.024;2023-05-12T11:54:48;101630.38;;;22.35;59.60
58534;BME280;44109;52.398;7.024;2023-05-12T11:57:34;101635.53;;;22.40;61.57
58534;BME280;44109;52.398;7.024;2023-05-12T12:00:03;101631.56;;;22.57;60.11
58534;BME280;44109;52.398;7.024;2023-05-12T12:02:34;101629.84;;;22.83;63.02
58534;BME280;44109;52.398;7.024;2023-05-12T12:05:15;101628.16;;;22.89;60.23
58534;BME280;44109;52.398;7.024;2023-05-12T12:07:43;101632.50;;;22.94;61.47
58534;BME280;44109;52.398;7.024;2023-05-12T12:10:12;101628.38;;;22.75;59.32
58534;BME280;44109;52.398;7.024;2023-05-12T12:12:42;101624.09;;;22.90;57.30
58534;BME280;44109;52.398;7.024;2023-05-12T12:15:11;101635.00;;;22.88;59.80
58534;BME280;44109;52.398;7.024;2023-05-12T12:17:40;101627.84;;;23.03;57.26
58534;BME280;44109;52.398;7.024;2023-05-12T12:20:08;101632.63;;;23.07;57.71
58534;BME280;44109;52.398;7.024;2023-05-12T12:22:36;101639.66;;;23.18;55.12
58534;BME280;44109;52.398;7.024;2023-05-12T12:25:05;101643.34;;;23.35;51.69
58534;BME280;44109;52.398;7.024;2023-05-12T12:27:33;101634.00;;;23.54;54.03
58534;BME280;44109;52.398;7.024;2023-05-12T12:30:01;101633.81;;;23.62;52.33
58534;BME280;44109;52.398;7.024;2023-05-12T12:32:29;101634.03;;;23.71;50.39
58534;BME280;44109;52.398;7.024;2023-05-12T12:34:58;101618.56;;;23.92;50.05
58534;BME280;44109;52.398;7.024;2023-05-12T12:37:28;101624.03;;;24.32;48.80
58534;BME280;44109;52.398;7.024;2023-05-12T12:39:57;101628.00;;;24.50;49.04
58534;BME280;44109;52.398;7.024;2023-05-12T12:42:25;101627.91;;;24.83;50.81
58534;BME280;44109;52.398;7.024;2023-05-12T12:44:52;101627.66;;;24.77;43.99
58534;BME280;44109;52.398;7.024;2023-05-12T12:47:20;101624.38;;;24.79;46.35
58534;BME280;44109;52.398;7.024;2023-05-12T12:49:48;101644.31;;;24.63;44.04